Rechercher aéroport 
image banner adimage banner adimage banner ad
image banner ad

KWLW - Willows-Glenn County

Situé à Willows, United States

ICAO - WLW, IATA - WLW

Données fournies par Airmate  

Information générale

Coordonnées: N39°30'57" W122°13'2"
Élévation : 141 feet MSL.
Variation magnétique : 14° East
Voir autres Aéroports à California

Données opérationnelles

Special qualification required
Heure actuelle UTC:
Heure actuelle locale:
Météo à : KCIC - Chico Muni ( 44 km )
METAR: KCIC 020455Z AUTO 13008KT 10SM CLR 32/12 A2996 RMK AO1
Voir NOTAMs / SUP AIP / TFR affectant cet aéroport [VIEW]
Fréquences de communication: [VIEW]

Pistes:

Identifiant RWYQFULongueur (ft)Largeur (ft)SurfaceLDA (ft)
13145°378860ASPH
31325°378860ASPH
16178°4125100ASPH
34358°4125100ASPH

Coordonnées de l'aéroport

Adresse: Willows United States

Vue satellite de KWLW